sensor_id;sensor_type;location;lat;lon;timestamp;pressure;altitude;pressure_sealevel;temperature;humidity
41264;BME280;26998;48.714;9.414;2023-04-15T00:01:05;98574.56;;;3.29;100.00
41264;BME280;26998;48.714;9.414;2023-04-15T00:03:32;98572.63;;;3.31;100.00
41264;BME280;26998;48.714;9.414;2023-04-15T00:05:59;98591.94;;;3.32;100.00
41264;BME280;26998;48.714;9.414;2023-04-15T00:08:26;98581.69;;;3.29;100.00
41264;BME280;26998;48.714;9.414;2023-04-15T00:10:52;98590.59;;;3.28;100.00
41264;BME280;26998;48.714;9.414;2023-04-15T00:13:19;98593.25;;;3.28;100.00
41264;BME280;26998;48.714;9.414;2023-04-15T00:15:45;98583.97;;;3.23;100.00
41264;BME280;26998;48.714;9.414;2023-04-15T00:18:12;98574.56;;;3.21;100.00
41264;BME280;26998;48.714;9.414;2023-04-15T00:20:38;98574.38;;;3.22;100.00
41264;BME280;26998;48.714;9.414;2023-04-15T00:23:05;98577.03;;;3.22;100.00
41264;BME280;26998;48.714;9.414;2023-04-15T00:25:31;98566.63;;;3.21;100.00
41264;BME280;26998;48.714;9.414;2023-04-15T00:27:58;98568.97;;;3.24;100.00
41264;BME280;26998;48.714;9.414;2023-04-15T00:30:24;98568.28;;;3.22;100.00
41264;BME280;26998;48.714;9.414;2023-04-15T00:32:51;98576.34;;;3.20;100.00
41264;BME280;26998;48.714;9.414;2023-04-15T00:35:18;98572.69;;;3.13;100.00
41264;BME280;26998;48.714;9.414;2023-04-15T00:37:44;98570.47;;;3.00;100.00
41264;BME280;26998;48.714;9.414;2023-04-15T00:40:12;98573.75;;;2.94;100.00
41264;BME280;26998;48.714;9.414;2023-04-15T00:42:39;98593.22;;;2.93;100.00
41264;BME280;26998;48.714;9.414;2023-04-15T00:45:06;98605.81;;;2.99;100.00
41264;BME280;26998;48.714;9.414;2023-04-15T00:47:34;98598.94;;;2.89;100.00
41264;BME280;26998;48.714;9.414;2023-04-15T00:50:01;98592.66;;;2.82;100.00
41264;BME280;26998;48.714;9.414;2023-04-15T00:52:28;98596.53;;;2.69;100.00
41264;BME280;26998;48.714;9.414;2023-04-15T00:54:54;98606.09;;;2.70;100.00
41264;BME280;26998;48.714;9.414;2023-04-15T00:57:21;98608.50;;;2.64;100.00
41264;BME280;26998;48.714;9.414;2023-04-15T00:59:48;98609.13;;;2.58;100.00
41264;BME280;26998;48.714;9.414;2023-04-15T01:02:16;98608.47;;;2.56;100.00
41264;BME280;26998;48.714;9.414;2023-04-15T01:04:43;98617.00;;;2.49;100.00
41264;BME280;26998;48.714;9.414;2023-04-15T01:07:09;98627.38;;;2.51;100.00
41264;BME280;26998;48.714;9.414;2023-04-15T01:09:36;98632.94;;;2.48;100.00
41264;BME280;26998;48.714;9.414;2023-04-15T01:12:03;98631.91;;;2.41;100.00
41264;BME280;26998;48.714;9.414;2023-04-15T01:14:30;98631.78;;;2.24;100.00
41264;BME280;26998;48.714;9.414;2023-04-15T01:16:57;98644.34;;;2.13;100.00
41264;BME280;26998;48.714;9.414;2023-04-15T01:19:23;98659.63;;;2.09;100.00
41264;BME280;26998;48.714;9.414;2023-04-15T01:21:50;98673.78;;;2.08;100.00
41264;BME280;26998;48.714;9.414;2023-04-15T01:24:17;98682.97;;;2.04;100.00
41264;BME280;26998;48.714;9.414;2023-04-15T01:26:44;98687.53;;;2.02;100.00
41264;BME280;26998;48.714;9.414;2023-04-15T01:29:11;98695.44;;;2.02;100.00
41264;BME280;26998;48.714;9.414;2023-04-15T01:31:38;98697.41;;;2.00;100.00
41264;BME280;26998;48.714;9.414;2023-04-15T01:34:04;98698.38;;;1.99;100.00
41264;BME280;26998;48.714;9.414;2023-04-15T01:36:31;98700.19;;;1.98;100.00
41264;BME280;26998;48.714;9.414;2023-04-15T01:38:57;98704.63;;;1.98;100.00
41264;BME280;26998;48.714;9.414;2023-04-15T01:41:27;98699.53;;;1.96;100.00
41264;BME280;26998;48.714;9.414;2023-04-15T01:43:54;98694.25;;;1.96;100.00
41264;BME280;26998;48.714;9.414;2023-04-15T01:46:22;98697.72;;;1.97;100.00
41264;BME280;26998;48.714;9.414;2023-04-15T01:48:49;98701.31;;;1.96;100.00
41264;BME280;26998;48.714;9.414;2023-04-15T01:51:15;98704.88;;;2.04;100.00
41264;BME280;26998;48.714;9.414;2023-04-15T01:53:42;98706.53;;;2.05;100.00
41264;BME280;26998;48.714;9.414;2023-04-15T01:56:08;98693.50;;;2.04;100.00
41264;BME280;26998;48.714;9.414;2023-04-15T01:58:35;98698.19;;;2.10;100.00
41264;BME280;26998;48.714;9.414;2023-04-15T02:01:02;98698.31;;;2.08;100.00
41264;BME280;26998;48.714;9.414;2023-04-15T02:03:28;98688.63;;;2.09;100.00
41264;BME280;26998;48.714;9.414;2023-04-15T02:05:55;98681.16;;;2.04;100.00
41264;BME280;26998;48.714;9.414;2023-04-15T02:08:22;98674.94;;;1.96;100.00
41264;BME280;26998;48.714;9.414;2023-04-15T02:10:49;98679.69;;;1.92;100.00
41264;BME280;26998;48.714;9.414;2023-04-15T02:13:16;98681.78;;;1.89;100.00
41264;BME280;26998;48.714;9.414;2023-04-15T02:15:49;98691.66;;;1.87;100.00
41264;BME280;26998;48.714;9.414;2023-04-15T02:18:16;98694.28;;;1.87;100.00
41264;BME280;26998;48.714;9.414;2023-04-15T02:20:42;98706.34;;;1.89;100.00
41264;BME280;26998;48.714;9.414;2023-04-15T02:23:09;98709.13;;;1.88;100.00
41264;BME280;26998;48.714;9.414;2023-04-15T02:25:36;98718.84;;;1.87;100.00
41264;BME280;26998;48.714;9.414;2023-04-15T02:28:04;98719.16;;;1.84;100.00
41264;BME280;26998;48.714;9.414;2023-04-15T02:30:31;98724.69;;;1.81;100.00
41264;BME280;26998;48.714;9.414;2023-04-15T02:32:59;98728.81;;;1.83;100.00
41264;BME280;26998;48.714;9.414;2023-04-15T02:35:26;98730.63;;;1.83;100.00
41264;BME280;26998;48.714;9.414;2023-04-15T02:37:52;98730.25;;;1.78;100.00
41264;BME280;26998;48.714;9.414;2023-04-15T02:40:19;98732.19;;;1.76;100.00
41264;BME280;26998;48.714;9.414;2023-04-15T02:42:45;98732.50;;;1.73;100.00
41264;BME280;26998;48.714;9.414;2023-04-15T02:45:12;98734.44;;;1.71;100.00
41264;BME280;26998;48.714;9.414;2023-04-15T02:47:38;98744.44;;;1.67;100.00
41264;BME280;26998;48.714;9.414;2023-04-15T02:50:11;98743.59;;;1.67;100.00
41264;BME280;26998;48.714;9.414;2023-04-15T02:52:39;98737.94;;;1.61;100.00
41264;BME280;26998;48.714;9.414;2023-04-15T02:55:06;98735.59;;;1.58;100.00
41264;BME280;26998;48.714;9.414;2023-04-15T02:57:32;98739.19;;;1.57;100.00
41264;BME280;26998;48.714;9.414;2023-04-15T02:59:59;98734.75;;;1.58;100.00
41264;BME280;26998;48.714;9.414;2023-04-15T03:02:25;98735.47;;;1.60;100.00
41264;BME280;26998;48.714;9.414;2023-04-15T03:04:53;98735.47;;;1.60;100.00
41264;BME280;26998;48.714;9.414;2023-04-15T03:07:20;98739.44;;;1.64;100.00
41264;BME280;26998;48.714;9.414;2023-04-15T03:09:46;98740.44;;;1.63;100.00
41264;BME280;26998;48.714;9.414;2023-04-15T03:12:13;98728.38;;;1.60;100.00
41264;BME280;26998;48.714;9.414;2023-04-15T03:14:39;98717.31;;;1.57;100.00
41264;BME280;26998;48.714;9.414;2023-04-15T03:17:06;98717.19;;;1.49;100.00
41264;BME280;26998;48.714;9.414;2023-04-15T03:19:32;98711.53;;;1.44;100.00
41264;BME280;26998;48.714;9.414;2023-04-15T03:21:59;98716.81;;;1.44;100.00
41264;BME280;26998;48.714;9.414;2023-04-15T03:24:25;98717.47;;;1.46;100.00
41264;BME280;26998;48.714;9.414;2023-04-15T03:26:52;98709.84;;;1.43;100.00
41264;BME280;26998;48.714;9.414;2023-04-15T03:29:18;98707.78;;;1.36;100.00
41264;BME280;26998;48.714;9.414;2023-04-15T03:31:45;98708.78;;;1.35;100.00
41264;BME280;26998;48.714;9.414;2023-04-15T03:34:11;98714.84;;;1.46;100.00
41264;BME280;26998;48.714;9.414;2023-04-15T03:36:38;98720.38;;;1.43;100.00
41264;BME280;26998;48.714;9.414;2023-04-15T03:39:04;98714.16;;;1.44;100.00
41264;BME280;26998;48.714;9.414;2023-04-15T03:41:31;98714.53;;;1.49;100.00
41264;BME280;26998;48.714;9.414;2023-04-15T03:43:57;98707.34;;;1.51;100.00
41264;BME280;26998;48.714;9.414;2023-04-15T03:46:24;98691.66;;;1.49;100.00
41264;BME280;26998;48.714;9.414;2023-04-15T03:48:51;98687.66;;;1.45;100.00
41264;BME280;26998;48.714;9.414;2023-04-15T03:51:17;98677.97;;;1.46;100.00
41264;BME280;26998;48.714;9.414;2023-04-15T03:53:44;98684.75;;;1.48;100.00
41264;BME280;26998;48.714;9.414;2023-04-15T03:56:10;98699.16;;;1.54;100.00
41264;BME280;26998;48.714;9.414;2023-04-15T03:58:36;98695.94;;;1.60;100.00
41264;BME280;26998;48.714;9.414;2023-04-15T04:01:03;98683.06;;;1.57;100.00
41264;BME280;26998;48.714;9.414;2023-04-15T04:03:30;98686.69;;;1.56;100.00
41264;BME280;26998;48.714;9.414;2023-04-15T04:05:56;98674.34;;;1.56;100.00
41264;BME280;26998;48.714;9.414;2023-04-15T04:08:23;98675.16;;;1.57;100.00
41264;BME280;26998;48.714;9.414;2023-04-15T04:10:50;98678.22;;;1.52;100.00
41264;BME280;26998;48.714;9.414;2023-04-15T04:13:16;98681.81;;;1.51;100.00
41264;BME280;26998;48.714;9.414;2023-04-15T04:15:43;98683.63;;;1.51;100.00
41264;BME280;26998;48.714;9.414;2023-04-15T04:18:11;98696.53;;;1.54;100.00
41264;BME280;26998;48.714;9.414;2023-04-15T04:20:37;98692.94;;;1.45;100.00
41264;BME280;26998;48.714;9.414;2023-04-15T04:23:04;98705.69;;;1.40;100.00
41264;BME280;26998;48.714;9.414;2023-04-15T04:25:30;98710.44;;;1.36;100.00
41264;BME280;26998;48.714;9.414;2023-04-15T04:27:57;98712.38;;;1.34;100.00
41264;BME280;26998;48.714;9.414;2023-04-15T04:30:24;98709.88;;;1.33;100.00
41264;BME280;26998;48.714;9.414;2023-04-15T04:32:52;98712.50;;;1.33;100.00
41264;BME280;26998;48.714;9.414;2023-04-15T04:35:19;98715.72;;;1.27;100.00
41264;BME280;26998;48.714;9.414;2023-04-15T04:37:45;98722.66;;;1.28;100.00
41264;BME280;26998;48.714;9.414;2023-04-15T04:40:12;98722.94;;;1.25;100.00
41264;BME280;26998;48.714;9.414;2023-04-15T04:42:38;98729.16;;;1.24;100.00
41264;BME280;26998;48.714;9.414;2023-04-15T04:45:05;98728.06;;;1.26;100.00
41264;BME280;26998;48.714;9.414;2023-04-15T04:47:32;98734.16;;;1.27;100.00
41264;BME280;26998;48.714;9.414;2023-04-15T04:49:59;98728.06;;;1.26;100.00
41264;BME280;26998;48.714;9.414;2023-04-15T04:52:25;98732.06;;;1.30;100.00
41264;BME280;26998;48.714;9.414;2023-04-15T04:54:52;98725.84;;;1.31;100.00
41264;BME280;26998;48.714;9.414;2023-04-15T04:57:18;98724.56;;;1.35;100.00
41264;BME280;26998;48.714;9.414;2023-04-15T04:59:45;98729.69;;;1.37;100.00
41264;BME280;26998;48.714;9.414;2023-04-15T05:02:12;98723.03;;;1.43;100.00
41264;BME280;26998;48.714;9.414;2023-04-15T05:04:38;98713.88;;;1.47;100.00
41264;BME280;26998;48.714;9.414;2023-04-15T05:07:05;98705.69;;;1.50;100.00
41264;BME280;26998;48.714;9.414;2023-04-15T05:09:32;98697.06;;;1.57;100.00
41264;BME280;26998;48.714;9.414;2023-04-15T05:11:58;98686.22;;;1.60;100.00
41264;BME280;26998;48.714;9.414;2023-04-15T05:14:25;98671.69;;;1.56;100.00
41264;BME280;26998;48.714;9.414;2023-04-15T05:16:52;98668.91;;;1.58;100.00
41264;BME280;26998;48.714;9.414;2023-04-15T05:19:18;98654.91;;;1.57;100.00
41264;BME280;26998;48.714;9.414;2023-04-15T05:21:45;98655.44;;;1.61;100.00
41264;BME280;26998;48.714;9.414;2023-04-15T05:24:11;98653.88;;;1.68;100.00
41264;BME280;26998;48.714;9.414;2023-04-15T05:26:38;98655.94;;;1.74;100.00
41264;BME280;26998;48.714;9.414;2023-04-15T05:29:04;98651.34;;;1.76;100.00
41264;BME280;26998;48.714;9.414;2023-04-15T05:31:31;98646.78;;;1.78;100.00
41264;BME280;26998;48.714;9.414;2023-04-15T05:33:58;98633.19;;;1.73;100.00
41264;BME280;26998;48.714;9.414;2023-04-15T05:36:24;98645.50;;;1.82;100.00
41264;BME280;26998;48.714;9.414;2023-04-15T05:38:51;98636.75;;;1.82;100.00
41264;BME280;26998;48.714;9.414;2023-04-15T05:41:18;98623.53;;;1.92;100.00
41264;BME280;26998;48.714;9.414;2023-04-15T05:43:45;98621.47;;;1.85;100.00
41264;BME280;26998;48.714;9.414;2023-04-15T05:46:12;98607.09;;;1.80;100.00
41264;BME280;26998;48.714;9.414;2023-04-15T05:48:38;98607.03;;;1.90;100.00
41264;BME280;26998;48.714;9.414;2023-04-15T05:51:05;98603.78;;;1.96;100.00
41264;BME280;26998;48.714;9.414;2023-04-15T05:53:31;98597.25;;;2.00;100.00
41264;BME280;26998;48.714;9.414;2023-04-15T05:55:58;98596.38;;;2.09;100.00
41264;BME280;26998;48.714;9.414;2023-04-15T05:58:25;98588.22;;;2.20;100.00
41264;BME280;26998;48.714;9.414;2023-04-15T06:00:52;98577.66;;;2.38;100.00
41264;BME280;26998;48.714;9.414;2023-04-15T06:03:19;98571.59;;;2.46;100.00
41264;BME280;26998;48.714;9.414;2023-04-15T06:05:46;98541.44;;;2.48;100.00
41264;BME280;26998;48.714;9.414;2023-04-15T06:08:12;98510.31;;;2.52;100.00
41264;BME280;26998;48.714;9.414;2023-04-15T06:10:39;98484.34;;;2.65;100.00
41264;BME280;26998;48.714;9.414;2023-04-15T06:13:06;98459.31;;;2.69;100.00
41264;BME280;26998;48.714;9.414;2023-04-15T06:15:33;98432.41;;;2.66;100.00
41264;BME280;26998;48.714;9.414;2023-04-15T06:17:59;98420.88;;;2.67;100.00
41264;BME280;26998;48.714;9.414;2023-04-15T06:20:26;98401.94;;;2.71;100.00
41264;BME280;26998;48.714;9.414;2023-04-15T06:22:52;98400.97;;;2.81;100.00
41264;BME280;26998;48.714;9.414;2023-04-15T06:25:19;98395.75;;;2.97;100.00
41264;BME280;26998;48.714;9.414;2023-04-15T06:27:45;98388.00;;;3.04;100.00
41264;BME280;26998;48.714;9.414;2023-04-15T06:30:12;98366.41;;;3.16;100.00
41264;BME280;26998;48.714;9.414;2023-04-15T06:32:38;98351.06;;;3.20;100.00
41264;BME280;26998;48.714;9.414;2023-04-15T06:35:06;98344.66;;;3.31;100.00
41264;BME280;26998;48.714;9.414;2023-04-15T06:37:32;98317.91;;;3.58;100.00
41264;BME280;26998;48.714;9.414;2023-04-15T06:39:59;98301.00;;;3.84;100.00
41264;BME280;26998;48.714;9.414;2023-04-15T06:42:26;98288.13;;;3.81;100.00
41264;BME280;26998;48.714;9.414;2023-04-15T06:44:52;98302.34;;;3.72;100.00
41264;BME280;26998;48.714;9.414;2023-04-15T06:47:19;98319.75;;;4.13;100.00
41264;BME280;26998;48.714;9.414;2023-04-15T06:49:46;98292.47;;;4.21;100.00
41264;BME280;26998;48.714;9.414;2023-04-15T06:52:13;98280.56;;;4.17;100.00
41264;BME280;26998;48.714;9.414;2023-04-15T06:54:39;98257.31;;;4.04;100.00
41264;BME280;26998;48.714;9.414;2023-04-15T06:57:06;98257.31;;;4.04;100.00
41264;BME280;26998;48.714;9.414;2023-04-15T06:59:33;98257.84;;;4.00;100.00
41264;BME280;26998;48.714;9.414;2023-04-15T07:02:00;98256.69;;;3.94;100.00
41264;BME280;26998;48.714;9.414;2023-04-15T07:04:27;98274.31;;;4.02;100.00
41264;BME280;26998;48.714;9.414;2023-04-15T07:06:53;98259.69;;;4.30;100.00
41264;BME280;26998;48.714;9.414;2023-04-15T07:09:22;98223.28;;;4.32;100.00
41264;BME280;26998;48.714;9.414;2023-04-15T07:11:48;98223.03;;;4.50;100.00
41264;BME280;26998;48.714;9.414;2023-04-15T07:14:16;98209.91;;;4.34;100.00
41264;BME280;26998;48.714;9.414;2023-04-15T07:16:43;98217.50;;;4.37;100.00
41264;BME280;26998;48.714;9.414;2023-04-15T07:19:09;98203.28;;;4.61;100.00
41264;BME280;26998;48.714;9.414;2023-04-15T07:21:37;98171.63;;;4.91;100.00
41264;BME280;26998;48.714;9.414;2023-04-15T07:24:06;98170.22;;;5.18;100.00
41264;BME280;26998;48.714;9.414;2023-04-15T07:26:33;98158.97;;;5.16;100.00
41264;BME280;26998;48.714;9.414;2023-04-15T07:29:00;98144.56;;;5.33;100.00
41264;BME280;26998;48.714;9.414;2023-04-15T07:31:26;98132.31;;;5.32;100.00
41264;BME280;26998;48.714;9.414;2023-04-15T07:33:53;98124.28;;;5.55;100.00
41264;BME280;26998;48.714;9.414;2023-04-15T07:36:20;98110.91;;;5.63;100.00
41264;BME280;26998;48.714;9.414;2023-04-15T07:38:46;98068.81;;;5.90;100.00
41264;BME280;26998;48.714;9.414;2023-04-15T07:41:13;98055.22;;;6.14;100.00
41264;BME280;26998;48.714;9.414;2023-04-15T07:43:39;98015.28;;;6.22;100.00
41264;BME280;26998;48.714;9.414;2023-04-15T07:46:06;98018.25;;;6.13;100.00
41264;BME280;26998;48.714;9.414;2023-04-15T07:48:33;98018.13;;;6.42;100.00
41264;BME280;26998;48.714;9.414;2023-04-15T07:51:02;97990.16;;;6.75;100.00
41264;BME280;26998;48.714;9.414;2023-04-15T07:53:29;97986.28;;;6.70;100.00
41264;BME280;26998;48.714;9.414;2023-04-15T07:55:55;97982.59;;;7.13;100.00
41264;BME280;26998;48.714;9.414;2023-04-15T07:58:21;97990.75;;;7.05;100.00
41264;BME280;26998;48.714;9.414;2023-04-15T08:00:48;97958.41;;;7.36;100.00
41264;BME280;26998;48.714;9.414;2023-04-15T08:03:15;97941.69;;;7.62;100.00
41264;BME280;26998;48.714;9.414;2023-04-15T08:05:41;97919.84;;;7.80;100.00
41264;BME280;26998;48.714;9.414;2023-04-15T08:08:08;97937.16;;;7.56;100.00
41264;BME280;26998;48.714;9.414;2023-04-15T08:10:34;97928.63;;;7.94;100.00
41264;BME280;26998;48.714;9.414;2023-04-15T08:13:01;97910.41;;;8.30;100.00
41264;BME280;26998;48.714;9.414;2023-04-15T08:15:28;97902.44;;;8.10;100.00
41264;BME280;26998;48.714;9.414;2023-04-15T08:17:54;97908.38;;;7.99;100.00
41264;BME280;26998;48.714;9.414;2023-04-15T08:20:21;97897.53;;;8.21;100.00
41264;BME280;26998;48.714;9.414;2023-04-15T08:22:47;97899.38;;;8.20;100.00
41264;BME280;26998;48.714;9.414;2023-04-15T08:25:17;97880.28;;;8.63;100.00
41264;BME280;26998;48.714;9.414;2023-04-15T08:27:44;97870.47;;;8.57;100.00
41264;BME280;26998;48.714;9.414;2023-04-15T08:30:11;97870.22;;;8.65;100.00
41264;BME280;26998;48.714;9.414;2023-04-15T08:32:37;97867.91;;;9.27;100.00
41264;BME280;26998;48.714;9.414;2023-04-15T08:35:04;97849.38;;;9.07;100.00
41264;BME280;26998;48.714;9.414;2023-04-15T08:37:31;97853.44;;;9.48;100.00
41264;BME280;26998;48.714;9.414;2023-04-15T08:39:59;97840.03;;;9.55;100.00
41264;BME280;26998;48.714;9.414;2023-04-15T08:42:36;97833.47;;;10.07;100.00
41264;BME280;26998;48.714;9.414;2023-04-15T08:45:04;97831.03;;;10.24;100.00
41264;BME280;26998;48.714;9.414;2023-04-15T08:47:31;97829.91;;;10.38;100.00
41264;BME280;26998;48.714;9.414;2023-04-15T08:50:02;97817.59;;;11.04;100.00
41264;BME280;26998;48.714;9.414;2023-04-15T08:52:30;97818.75;;;10.78;100.00
41264;BME280;26998;48.714;9.414;2023-04-15T08:54:58;97819.47;;;10.85;100.00
41264;BME280;26998;48.714;9.414;2023-04-15T08:57:26;97815.31;;;11.20;99.67
41264;BME280;26998;48.714;9.414;2023-04-15T08:59:56;97815.53;;;11.48;98.75
41264;BME280;26998;48.714;9.414;2023-04-15T09:02:24;97814.47;;;12.03;94.82
41264;BME280;26998;48.714;9.414;2023-04-15T09:04:52;97810.84;;;11.97;94.67
41264;BME280;26998;48.714;9.414;2023-04-15T09:07:19;97808.25;;;11.79;96.48
41264;BME280;26998;48.714;9.414;2023-04-15T09:09:47;97815.31;;;11.50;97.96
41264;BME280;26998;48.714;9.414;2023-04-15T09:12:13;97812.59;;;11.38;99.15
41264;BME280;26998;48.714;9.414;2023-04-15T09:14:40;97804.38;;;11.63;100.00
41264;BME280;26998;48.714;9.414;2023-04-15T09:17:09;97813.66;;;11.37;98.77
41264;BME280;26998;48.714;9.414;2023-04-15T09:19:37;97815.69;;;11.77;100.00
41264;BME280;26998;48.714;9.414;2023-04-15T09:22:05;97812.09;;;12.42;95.93
41264;BME280;26998;48.714;9.414;2023-04-15T09:24:35;97808.75;;;12.46;94.13
41264;BME280;26998;48.714;9.414;2023-04-15T09:27:02;97809.44;;;12.94;91.60
41264;BME280;26998;48.714;9.414;2023-04-15T09:29:40;97813.00;;;12.71;92.20
41264;BME280;26998;48.714;9.414;2023-04-15T09:32:13;97808.34;;;12.66;93.28
41264;BME280;26998;48.714;9.414;2023-04-15T09:34:40;97815.78;;;12.64;93.25
41264;BME280;26998;48.714;9.414;2023-04-15T09:37:06;97808.31;;;13.07;89.76
41264;BME280;26998;48.714;9.414;2023-04-15T09:39:50;97804.78;;;13.47;88.12
41264;BME280;26998;48.714;9.414;2023-04-15T09:42:18;97801.78;;;13.60;85.26
41264;BME280;26998;48.714;9.414;2023-04-15T09:44:45;97810.72;;;13.82;73.27
41264;BME280;26998;48.714;9.414;2023-04-15T09:47:31;97819.22;;;13.74;73.91
41264;BME280;26998;48.714;9.414;2023-04-15T09:49:58;97825.47;;;13.63;71.80
41264;BME280;26998;48.714;9.414;2023-04-15T09:52:26;97823.84;;;13.05;65.50
41264;BME280;26998;48.714;9.414;2023-04-15T09:54:53;97822.06;;;12.82;64.23
41264;BME280;26998;48.714;9.414;2023-04-15T09:57:20;97818.84;;;12.68;70.39
41264;BME280;26998;48.714;9.414;2023-04-15T09:59:47;97822.66;;;13.12;68.63
41264;BME280;26998;48.714;9.414;2023-04-15T10:02:15;97819.91;;;12.95;65.66
41264;BME280;26998;48.714;9.414;2023-04-15T10:04:54;97814.28;;;12.68;71.08
41264;BME280;26998;48.714;9.414;2023-04-15T10:07:21;97818.72;;;12.63;70.37
41264;BME280;26998;48.714;9.414;2023-04-15T10:09:48;97820.81;;;12.61;73.54
41264;BME280;26998;48.714;9.414;2023-04-15T10:12:16;97817.56;;;12.59;75.09
41264;BME280;26998;48.714;9.414;2023-04-15T10:14:55;97814.72;;;12.77;72.37
41264;BME280;26998;48.714;9.414;2023-04-15T10:17:26;97816.63;;;12.65;71.61
41264;BME280;26998;48.714;9.414;2023-04-15T10:19:57;97817.69;;;12.92;73.34
41264;BME280;26998;48.714;9.414;2023-04-15T10:22:26;97823.19;;;12.86;69.01
41264;BME280;26998;48.714;9.414;2023-04-15T10:24:55;97824.84;;;13.27;67.16
41264;BME280;26998;48.714;9.414;2023-04-15T10:27:22;97824.56;;;13.57;63.98
41264;BME280;26998;48.714;9.414;2023-04-15T10:29:53;97830.25;;;13.61;61.06
41264;BME280;26998;48.714;9.414;2023-04-15T10:32:20;97841.34;;;13.36;62.11
41264;BME280;26998;48.714;9.414;2023-04-15T10:34:50;97838.66;;;13.81;58.13
41264;BME280;26998;48.714;9.414;2023-04-15T10:37:21;97839.25;;;13.83;58.23
41264;BME280;26998;48.714;9.414;2023-04-15T10:39:48;97841.94;;;13.55;59.88
41264;BME280;26998;48.714;9.414;2023-04-15T10:42:16;97840.47;;;13.93;59.75
41264;BME280;26998;48.714;9.414;2023-04-15T10:44:47;97845.66;;;13.82;57.63
41264;BME280;26998;48.714;9.414;2023-04-15T10:47:19;97846.03;;;13.57;60.13
41264;BME280;26998;48.714;9.414;2023-04-15T10:49:57;97843.63;;;13.15;67.61
41264;BME280;26998;48.714;9.414;2023-04-15T10:52:26;97845.41;;;13.10;65.12
41264;BME280;26998;48.714;9.414;2023-04-15T10:55:12;97842.13;;;13.08;63.58
41264;BME280;26998;48.714;9.414;2023-04-15T10:57:40;97844.47;;;13.04;69.81
41264;BME280;26998;48.714;9.414;2023-04-15T11:02:59;97846.16;;;12.93;60.63
41264;BME280;26998;48.714;9.414;2023-04-15T11:08:07;97845.28;;;13.05;59.89
41264;BME280;26998;48.714;9.414;2023-04-15T11:13:12;97844.72;;;13.03;63.22
41264;BME280;26998;48.714;9.414;2023-04-15T11:15:41;97846.34;;;13.04;64.28
41264;BME280;26998;48.714;9.414;2023-04-15T11:20:42;97846.22;;;13.10;69.68
41264;BME280;26998;48.714;9.414;2023-04-15T11:23:09;97847.91;;;13.00;67.57
41264;BME280;26998;48.714;9.414;2023-04-15T11:25:41;97845.47;;;12.86;73.89
41264;BME280;26998;48.714;9.414;2023-04-15T11:28:10;97842.78;;;12.86;76.18
41264;BME280;26998;48.714;9.414;2023-04-15T11:30:37;97851.81;;;13.09;75.44
41264;BME280;26998;48.714;9.414;2023-04-15T11:33:10;97857.59;;;13.17;75.62
41264;BME280;26998;48.714;9.414;2023-04-15T11:35:39;97854.66;;;13.02;71.53
41264;BME280;26998;48.714;9.414;2023-04-15T11:38:09;97853.09;;;13.47;68.37
41264;BME280;26998;48.714;9.414;2023-04-15T11:40:37;97856.66;;;13.81;61.34
41264;BME280;26998;48.714;9.414;2023-04-15T11:43:05;97858.16;;;13.77;57.99
41264;BME280;26998;48.714;9.414;2023-04-15T11:45:33;97866.91;;;13.38;58.00
41264;BME280;26998;48.714;9.414;2023-04-15T11:48:08;97872.38;;;13.44;58.92
41264;BME280;26998;48.714;9.414;2023-04-15T11:50:37;97865.56;;;13.70;54.94
41264;BME280;26998;48.714;9.414;2023-04-15T11:53:06;97859.53;;;14.47;55.05
41264;BME280;26998;48.714;9.414;2023-04-15T11:55:44;97875.19;;;14.16;53.63
41264;BME280;26998;48.714;9.414;2023-04-15T12:01:00;97878.44;;;13.39;63.09
41264;BME280;26998;48.714;9.414;2023-04-15T12:03:35;97884.44;;;13.29;63.21
41264;BME280;26998;48.714;9.414;2023-04-15T12:06:23;97878.53;;;13.44;64.15
41264;BME280;26998;48.714;9.414;2023-04-15T12:09:04;97890.34;;;13.03;70.09
41264;BME280;26998;48.714;9.414;2023-04-15T12:11:34;97876.44;;;13.06;74.91
41264;BME280;26998;48.714;9.414;2023-04-15T12:14:09;97889.28;;;12.92;69.44
41264;BME280;26998;48.714;9.414;2023-04-15T12:16:57;97892.72;;;12.64;70.96
41264;BME280;26998;48.714;9.414;2023-04-15T12:22:00;97897.00;;;12.88;69.13
41264;BME280;26998;48.714;9.414;2023-04-15T12:24:30;97887.59;;;12.74;70.45
41264;BME280;26998;48.714;9.414;2023-04-15T12:27:01;97888.19;;;12.53;78.26
41264;BME280;26998;48.714;9.414;2023-04-15T12:29:29;97899.84;;;12.46;81.03
41264;BME280;26998;48.714;9.414;2023-04-15T12:32:08;97905.78;;;12.37;84.88
41264;BME280;26998;48.714;9.414;2023-04-15T12:34:39;97917.75;;;12.11;90.51
41264;BME280;26998;48.714;9.414;2023-04-15T12:37:09;97924.34;;;11.85;100.00
41264;BME280;26998;48.714;9.414;2023-04-15T12:39:38;97923.59;;;11.77;100.00
41264;BME280;26998;48.714;9.414;2023-04-15T12:42:05;97942.69;;;11.81;100.00
41264;BME280;26998;48.714;9.414;2023-04-15T12:44:32;97942.44;;;11.83;100.00
41264;BME280;26998;48.714;9.414;2023-04-15T12:46:59;97939.56;;;11.84;100.00
41264;BME280;26998;48.714;9.414;2023-04-15T12:49:27;97939.81;;;11.64;97.49
41264;BME280;26998;48.714;9.414;2023-04-15T12:51:54;97956.69;;;11.65;97.82
41264;BME280;26998;48.714;9.414;2023-04-15T12:54:21;97974.16;;;11.37;100.00
41264;BME280;26998;48.714;9.414;2023-04-15T12:56:49;97987.97;;;10.97;100.00
41264;BME280;26998;48.714;9.414;2023-04-15T12:59:16;97999.72;;;10.71;100.00
41264;BME280;26998;48.714;9.414;2023-04-15T13:01:43;98018.72;;;10.38;100.00
41264;BME280;26998;48.714;9.414;2023-04-15T13:04:11;98022.91;;;10.27;100.00
41264;BME280;26998;48.714;9.414;2023-04-15T13:06:37;98037.59;;;10.05;100.00
41264;BME280;26998;48.714;9.414;2023-04-15T13:09:04;98047.53;;;9.91;100.00
41264;BME280;26998;48.714;9.414;2023-04-15T13:11:32;98075.38;;;9.63;100.00
41264;BME280;26998;48.714;9.414;2023-04-15T13:14:04;98117.91;;;9.25;100.00
41264;BME280;26998;48.714;9.414;2023-04-15T13:16:32;98129.44;;;9.06;100.00
41264;BME280;26998;48.714;9.414;2023-04-15T13:19:00;98179.06;;;9.07;100.00